Time;durP1;ratioP1;P1;durP2;ratioP2;P2;SDS_P1;SDS_P2;PMS_P1;PMS_P2;Temp;Humidity;BMP_temperature;BMP_pressure;BME280_temperature;BME280_humidity;BME280_pressure;Samples;Min_cycle;Max_cycle;Signal;HPM_P1;HPM_P2
2022/09/28 00:01:46;;;;;;;4.28;3.00;;;;;;;7.59;88.80;99507.94;5032818;28;20476;-76
2022/09/28 00:04:11;;;;;;;4.57;3.20;;;;;;;7.60;89.23;99510.47;5032116;28;20040;-76
2022/09/28 00:06:37;;;;;;;4.57;3.28;;;;;;;7.60;88.75;99509.66;5044474;28;20388;-76
2022/09/28 00:09:02;;;;;;;5.82;3.63;;;;;;;7.62;88.95;99507.00;5045472;28;20128;-76
2022/09/28 00:11:28;;;;;;;4.55;3.35;;;;;;;7.63;88.81;99503.50;5042671;28;20033;-76
2022/09/28 00:13:56;;;;;;;5.43;3.47;;;;;;;7.63;88.69;99511.28;5038392;28;20031;-76
2022/09/28 00:16:25;;;;;;;4.55;3.53;;;;;;;7.63;88.70;99503.50;5037694;28;20111;-76
2022/09/28 00:18:51;;;;;;;5.20;3.97;;;;;;;7.63;88.58;99501.78;5040433;28;20025;-76
2022/09/28 00:21:28;;;;;;;6.22;4.05;;;;;;;7.63;88.63;99499.19;5043584;28;20457;-76
2022/09/28 00:24:11;;;;;;;7.03;4.00;;;;;;;7.65;88.69;99501.72;5036765;28;20056;-76
2022/09/28 00:26:41;;;;;;;5.70;3.92;;;;;;;7.63;88.50;99499.19;5045004;28;20074;-76
2022/09/28 00:29:15;;;;;;;7.20;4.50;;;;;;;7.62;88.68;99494.91;5049453;28;20020;-76
2022/09/28 00:31:40;;;;;;;6.97;5.00;;;;;;;7.61;88.51;99488.03;5051429;28;20029;-76
2022/09/28 00:34:05;;;;;;;6.07;4.88;;;;;;;7.61;88.63;99490.63;5039077;28;20080;-76
2022/09/28 00:36:32;;;;;;;7.40;5.20;;;;;;;7.61;88.59;99488.03;5045158;28;20485;-76
2022/09/28 00:38:58;;;;;;;7.50;5.35;;;;;;;7.59;88.45;99482.06;5039839;28;20034;-76
2022/09/28 00:41:25;;;;;;;7.10;5.22;;;;;;;7.59;88.61;99487.25;5032606;28;20443;-76
2022/09/28 00:43:52;;;;;;;7.97;5.68;;;;;;;7.57;88.77;99484.72;5046433;28;20025;-76
2022/09/28 00:46:32;;;;;;;12.43;5.75;;;;;;;7.59;88.87;99482.06;5049639;28;20025;-76
2022/09/28 00:49:02;;;;;;;8.60;5.38;;;;;;;7.60;88.80;99483.75;5040905;28;20025;-76
2022/09/28 00:51:30;;;;;;;7.35;5.03;;;;;;;7.61;88.58;99482.88;5046277;28;20025;-76
2022/09/28 00:53:58;;;;;;;7.90;5.40;;;;;;;7.61;88.36;99477.69;5044037;28;20071;-76
2022/09/28 00:56:29;;;;;;;7.57;5.43;;;;;;;7.62;88.72;99470.75;5042817;28;20322;-76
2022/09/28 00:58:56;;;;;;;6.93;4.80;;;;;;;7.65;88.52;99479.28;5043368;28;20025;-76
2022/09/28 01:01:21;;;;;;;8.80;5.30;;;;;;;7.65;88.42;99470.66;5039942;28;20064;-76
2022/09/28 01:03:47;;;;;;;8.75;5.03;;;;;;;7.66;88.57;99470.63;5045071;28;20108;-76
2022/09/28 01:06:21;;;;;;;7.10;4.93;;;;;;;7.68;88.63;99465.38;5036878;28;20025;-76
2022/09/28 01:08:50;;;;;;;7.78;4.90;;;;;;;7.67;88.62;99459.38;5043262;28;20048;-76
2022/09/28 01:11:19;;;;;;;7.03;4.63;;;;;;;7.68;88.15;99463.63;5039360;28;20385;-76
2022/09/28 01:13:47;;;;;;;7.05;5.15;;;;;;;7.68;88.40;99466.22;5043722;28;20025;-76
2022/09/28 01:16:27;;;;;;;7.00;4.80;;;;;;;7.70;88.65;99468.75;5038995;28;20056;-76
2022/09/28 01:18:58;;;;;;;6.90;5.15;;;;;;;7.70;88.60;99460.97;5040125;28;20033;-76
2022/09/28 01:21:24;;;;;;;7.38;4.57;;;;;;;7.70;88.48;99461.81;5039404;28;20034;-76
2022/09/28 01:24:28;;;;;;;7.05;4.80;;;;;;;7.70;88.54;99454.06;5045809;28;20081;-76
2022/09/28 01:27:09;;;;;;;5.78;4.35;;;;;;;7.69;88.39;99460.13;5031705;28;20059;-76
2022/09/28 01:29:39;;;;;;;7.03;4.35;;;;;;;7.67;88.46;99467.13;5051909;28;20028;-76
2022/09/28 01:32:14;;;;;;;7.30;4.60;;;;;;;7.65;88.35;99455.97;5047924;28;20066;-77
2022/09/28 01:34:50;;;;;;;6.55;4.60;;;;;;;7.64;88.67;99467.22;5047522;28;20119;-76
2022/09/28 01:37:20;;;;;;;6.85;4.20;;;;;;;7.63;88.53;99468.13;5044802;28;20021;-76
2022/09/28 01:39:48;;;;;;;6.03;4.55;;;;;;;7.63;88.47;99472.44;5040286;28;20025;-76
2022/09/28 01:42:20;;;;;;;6.25;4.45;;;;;;;7.61;88.00;99469.94;5044096;28;20104;-76
2022/09/28 01:44:48;;;;;;;7.57;4.38;;;;;;;7.59;88.13;99476.91;5036441;28;20052;-76
2022/09/28 01:47:19;;;;;;;6.00;4.38;;;;;;;7.60;88.05;99473.41;5047749;28;20108;-76
2022/09/28 01:49:54;;;;;;;6.47;3.88;;;;;;;7.59;88.16;99475.16;5042487;28;20492;-76
2022/09/28 01:52:26;;;;;;;5.85;3.97;;;;;;;7.59;87.75;99471.72;5047334;28;20032;-76
2022/09/28 01:55:01;;;;;;;7.07;4.45;;;;;;;7.59;87.90;99474.31;5039407;28;20557;-76
2022/09/28 01:57:37;;;;;;;5.70;4.05;;;;;;;7.58;87.88;99476.06;5037574;28;20049;-76
2022/09/28 02:00:12;;;;;;;5.40;4.13;;;;;;;7.57;87.86;99474.38;5042577;28;20033;-76
2022/09/28 02:02:45;;;;;;;6.38;4.03;;;;;;;7.60;88.05;99473.41;5042163;28;20026;-76
2022/09/28 02:05:17;;;;;;;6.22;4.40;;;;;;;7.59;87.84;99466.53;5040064;28;20498;-76
2022/09/28 02:07:44;;;;;;;5.95;4.22;;;;;;;7.60;88.01;99470.81;5042516;28;20515;-76
2022/09/28 02:10:15;;;;;;;5.40;4.15;;;;;;;7.59;87.98;99470.00;5021394;28;20029;-76
2022/09/28 02:13:12;;;;;;;7.78;4.68;;;;;;;7.61;87.75;99475.09;5048914;28;20036;-76
2022/09/28 02:15:49;;;;;;;5.57;4.00;;;;;;;7.62;88.17;99463.84;5038529;28;20041;-76
2022/09/28 02:18:14;;;;;;;6.78;4.53;;;;;;;7.60;88.03;99463.06;5029332;28;20421;-76
2022/09/28 02:20:46;;;;;;;6.68;4.78;;;;;;;7.60;88.08;99466.47;5040612;28;20030;-76
2022/09/28 02:23:12;;;;;;;6.55;4.90;;;;;;;7.60;87.91;99470.81;5039726;28;20029;-76
2022/09/28 02:25:44;;;;;;;6.45;4.80;;;;;;;7.59;88.39;99467.41;5039848;28;20029;-76
2022/09/28 02:28:14;;;;;;;7.28;5.90;;;;;;;7.61;88.22;99480.28;5034723;28;20033;-76
2022/09/28 02:30:42;;;;;;;7.45;5.32;;;;;;;7.60;88.54;99468.22;5048649;28;20400;-76
2022/09/28 02:33:13;;;;;;;6.90;5.25;;;;;;;7.60;88.48;99468.22;5045894;28;20025;-76
2022/09/28 02:35:39;;;;;;;;;;;;;;;7.63;87.98;99478.47;5053571;28;20025;-76
2022/09/28 02:38:05;;;;;;;8.10;5.10;;;;;;;7.59;88.38;99479.47;5038344;28;19913;-76
2022/09/28 02:40:33;;;;;;;8.57;5.57;;;;;;;7.60;88.67;99476.81;5047843;28;20083;-76
2022/09/28 02:43:26;;;;;;;9.32;5.75;;;;;;;7.60;88.76;99476.81;5048897;28;20021;-76
2022/09/28 02:46:05;;;;;;;7.88;5.75;;;;;;;7.59;88.59;99472.56;5041392;28;20033;-76
2022/09/28 02:48:57;;;;;;;7.18;5.75;;;;;;;7.59;88.79;99482.94;5034999;28;20037;-76
2022/09/28 02:51:29;;;;;;;9.75;5.90;;;;;;;7.58;88.72;99470.03;5041896;28;20045;-76
2022/09/28 02:54:13;;;;;;;9.68;5.80;;;;;;;7.58;88.75;99470.88;5040230;28;20027;-76
2022/09/28 02:57:02;;;;;;;8.35;6.03;;;;;;;7.58;88.74;99470.88;5048383;28;20036;-76
2022/09/28 02:59:58;;;;;;;8.35;5.75;;;;;;;7.58;88.49;99470.03;5047854;28;20025;-76
2022/09/28 03:02:31;;;;;;;9.18;5.35;;;;;;;7.56;88.42;99467.50;5047652;28;20108;-76
2022/09/28 03:05:05;;;;;;;7.70;5.25;;;;;;;7.56;88.59;99471.81;5043601;28;20057;-76
2022/09/28 03:07:39;;;;;;;9.13;5.25;;;;;;;7.54;88.58;99465.84;5044842;28;20041;-76
2022/09/28 03:10:12;;;;;;;7.18;5.38;;;;;;;7.56;88.60;99471.81;5044558;28;20023;-76
2022/09/28 03:12:38;;;;;;;6.45;5.30;;;;;;;7.56;88.52;99466.66;5043331;28;20109;-76
2022/09/28 03:15:29;;;;;;;8.55;5.13;;;;;;;7.57;88.39;99471.78;5041415;28;20116;-76
2022/09/28 03:17:56;;;;;;;7.00;4.90;;;;;;;7.56;88.03;99475.28;5034909;28;20412;-75
2022/09/28 03:20:21;;;;;;;7.05;5.20;;;;;;;7.53;88.26;99470.19;5035391;28;20080;-76
2022/09/28 03:22:47;;;;;;;6.93;4.75;;;;;;;7.53;88.39;99474.50;5038068;28;20021;-76
2022/09/28 03:25:13;;;;;;;7.78;5.10;;;;;;;7.53;88.37;99479.69;5037206;28;20129;-76
2022/09/28 03:27:38;;;;;;;6.95;4.38;;;;;;;7.53;88.16;99475.38;5045533;28;20025;-76
2022/09/28 03:30:04;;;;;;;8.23;4.78;;;;;;;7.53;88.05;99471.94;5044288;28;20025;-77
2022/09/28 03:32:29;;;;;;;5.70;4.25;;;;;;;7.54;88.46;99476.19;5045842;28;20056;-76
2022/09/28 03:34:55;;;;;;;6.05;4.28;;;;;;;7.56;88.40;99480.44;5033759;28;20025;-76
2022/09/28 03:37:21;;;;;;;6.28;4.05;;;;;;;7.57;88.27;99476.09;5044830;28;20087;-76
2022/09/28 03:39:46;;;;;;;5.60;4.07;;;;;;;7.58;88.41;99477.78;5038434;28;20029;-76
2022/09/28 03:42:11;;;;;;;6.00;4.10;;;;;;;7.57;87.94;99476.09;5037651;28;20041;-76
2022/09/28 03:44:37;;;;;;;7.95;4.20;;;;;;;7.57;87.95;99478.69;5035636;28;20036;-76
2022/09/28 03:47:02;;;;;;;5.93;3.75;;;;;;;7.56;88.05;99466.66;5034873;28;20029;-76
2022/09/28 03:49:27;;;;;;;4.38;3.38;;;;;;;7.54;87.94;99473.63;5039622;28;21149;-76
2022/09/28 03:51:53;;;;;;;5.60;3.58;;;;;;;7.55;87.47;99475.31;5040938;28;20024;-76
2022/09/28 03:54:18;;;;;;;4.93;3.40;;;;;;;7.55;87.91;99475.31;5047230;28;20032;-76
2022/09/28 03:56:43;;;;;;;5.35;3.60;;;;;;;7.55;88.01;99476.16;5041871;28;20029;-76
2022/09/28 03:59:09;;;;;;;4.60;3.30;;;;;;;7.56;88.06;99487.34;5043168;28;20036;-76
2022/09/28 04:01:34;;;;;;;4.95;3.15;;;;;;;7.55;87.57;99485.66;5035771;28;20116;-76
2022/09/28 04:04:00;;;;;;;4.63;3.00;;;;;;;7.51;87.77;99479.75;5050016;28;20025;-76
2022/09/28 04:06:26;;;;;;;5.63;3.17;;;;;;;7.50;87.85;99479.81;5029105;28;20033;-74
2022/09/28 04:08:52;;;;;;;4.53;2.60;;;;;;;7.49;87.98;99484.13;5046263;28;20404;-76
2022/09/28 04:11:17;;;;;;;5.35;2.78;;;;;;;7.49;87.75;99486.72;5039602;28;20025;-76
2022/09/28 04:13:42;;;;;;;4.30;2.78;;;;;;;7.46;88.10;99483.41;5048825;28;20057;-76
2022/09/28 04:16:09;;;;;;;6.03;2.78;;;;;;;7.43;87.93;99477.44;5045362;28;20055;-76
2022/09/28 04:18:34;;;;;;;5.35;2.67;;;;;;;7.44;88.01;99484.31;5036213;28;20111;-76
2022/09/28 04:21:06;;;;;;;4.57;2.42;;;;;;;7.44;88.19;99481.72;5039861;28;20485;-76
2022/09/28 04:23:35;;;;;;;4.75;2.42;;;;;;;7.42;88.04;99486.09;5040247;28;20025;-76
2022/09/28 04:26:02;;;;;;;3.53;2.33;;;;;;;7.40;88.04;99477.53;5037363;28;20452;-76
2022/09/28 04:31:16;;;;;;;3.45;2.17;;;;;;;7.40;88.24;99479.28;5036205;28;20431;-76
2022/09/28 04:33:41;;;;;;;3.70;2.00;;;;;;;7.39;88.20;99475.03;5036876;28;20082;-76
2022/09/28 04:36:08;;;;;;;3.58;2.05;;;;;;;7.38;88.13;99473.31;5050296;28;20025;-76
2022/09/28 04:38:33;;;;;;;4.38;1.77;;;;;;;7.37;88.14;99477.63;5038880;28;20036;-76
2022/09/28 04:40:59;;;;;;;4.45;1.65;;;;;;;7.34;88.00;99475.19;5042381;28;20029;-76
2022/09/28 04:43:24;;;;;;;2.33;1.80;;;;;;;7.32;88.19;99469.22;5034374;28;20322;-76
2022/09/28 04:45:50;;;;;;;2.63;1.63;;;;;;;7.30;88.23;99471.00;5050039;28;20028;-76
2022/09/28 04:48:15;;;;;;;2.65;1.50;;;;;;;7.30;88.31;99468.41;5045071;28;20022;-76
2022/09/28 04:50:40;;;;;;;5.32;1.90;;;;;;;7.31;88.46;99471.84;5046563;28;20149;-76
2022/09/28 04:53:05;;;;;;;3.55;1.40;;;;;;;7.29;88.33;99469.31;5036718;28;20032;-76
2022/09/28 04:55:31;;;;;;;3.70;1.58;;;;;;;7.27;88.12;99469.34;5050673;28;20468;-76
2022/09/28 04:58:01;;;;;;;2.78;1.40;;;;;;;7.25;88.16;99468.59;5042306;28;20032;-76
2022/09/28 05:00:31;;;;;;;2.03;1.45;;;;;;;7.25;88.10;99478.06;5039845;28;20553;-76
2022/09/28 05:02:57;;;;;;;3.75;1.48;;;;;;;7.23;88.37;99485.03;5041056;28;20369;-76
2022/09/28 05:05:22;;;;;;;4.72;1.40;;;;;;;7.21;88.24;99482.50;5048185;28;20024;-76
2022/09/28 05:07:47;;;;;;;6.07;1.58;;;;;;;7.21;88.18;99492.84;5035046;28;20102;-76
2022/09/28 05:10:13;;;;;;;2.33;1.40;;;;;;;7.21;88.32;99486.81;5040126;28;20028;-76
2022/09/28 05:12:38;;;;;;;6.00;1.50;;;;;;;7.20;88.35;99490.31;5042089;28;20061;-77
2022/09/28 05:15:04;;;;;;;1.92;1.13;;;;;;;7.19;88.21;99493.78;5041973;28;20067;-76
2022/09/28 05:17:30;;;;;;;2.35;1.30;;;;;;;7.19;88.17;99496.38;5040235;28;20033;-76
2022/09/28 05:19:55;;;;;;;3.38;1.33;;;;;;;7.18;87.94;99492.09;5046810;28;20056;-76
2022/09/28 05:22:21;;;;;;;2.45;1.30;;;;;;;7.18;88.23;99497.25;5046493;28;20052;-76
2022/09/28 05:24:46;;;;;;;2.33;1.23;;;;;;;7.17;88.23;99504.19;5039078;28;20368;-76
2022/09/28 05:27:11;;;;;;;3.00;1.20;;;;;;;7.15;88.33;99503.41;5041699;28;20056;-77
2022/09/28 05:29:37;;;;;;;3.55;1.02;;;;;;;7.14;88.18;99497.41;5036865;28;20017;-76
2022/09/28 05:32:02;;;;;;;1.80;1.13;;;;;;;7.13;88.60;99503.47;5035871;28;20071;-76
2022/09/28 05:34:27;;;;;;;1.80;1.27;;;;;;;7.12;88.48;99508.66;5037378;28;20432;-76
2022/09/28 05:36:53;;;;;;;1.85;1.10;;;;;;;7.09;88.05;99503.59;5044563;28;20103;-76
2022/09/28 05:39:18;;;;;;;2.05;1.20;;;;;;;7.08;88.43;99501.94;5035662;28;20056;-76
2022/09/28 05:41:43;;;;;;;3.25;1.45;;;;;;;7.09;88.28;99503.59;5033664;28;20025;-76
2022/09/28 05:44:08;;;;;;;2.58;1.30;;;;;;;7.08;88.27;99494.16;5041902;28;20384;-76
2022/09/28 05:46:34;;;;;;;4.53;1.38;;;;;;;7.08;88.43;99505.34;5052033;28;20036;-76
2022/09/28 05:48:59;;;;;;;5.45;1.42;;;;;;;7.07;88.35;99506.22;5035719;28;20037;-76
2022/09/28 05:51:24;;;;;;;3.42;1.40;;;;;;;7.07;88.54;99506.22;5038793;28;20029;-76
2022/09/28 05:53:53;;;;;;;4.28;1.85;;;;;;;7.06;88.61;99504.53;5044658;28;20878;-76
2022/09/28 05:56:18;;;;;;;1.63;1.00;;;;;;;7.05;88.45;99505.44;5043586;28;20041;-76
2022/09/28 05:58:43;;;;;;;3.22;1.05;;;;;;;7.05;88.46;99508.03;5035265;28;20025;-76
2022/09/28 06:01:09;;;;;;;2.58;1.10;;;;;;;7.06;88.53;99508.88;5040801;28;20031;-76
2022/09/28 06:03:34;;;;;;;3.55;1.15;;;;;;;7.09;88.71;99509.63;5040277;28;20040;-76
2022/09/28 06:06:01;;;;;;;1.42;1.00;;;;;;;7.11;88.67;99518.19;5035606;28;20049;-76
2022/09/28 06:08:26;;;;;;;4.65;1.20;;;;;;;7.13;88.95;99516.38;5036129;28;20055;-76
2022/09/28 06:10:51;;;;;;;2.80;1.10;;;;;;;7.14;88.75;99520.66;5049933;28;20099;-76
2022/09/28 06:13:16;;;;;;;5.10;1.23;;;;;;;7.14;88.73;99518.09;5044329;28;20028;-76
2022/09/28 06:15:43;;;;;;;1.77;0.80;;;;;;;7.16;88.16;99528.38;5040063;28;20040;-76
2022/09/28 06:18:13;;;;;;;0.80;0.70;;;;;;;7.16;88.68;99530.13;5025227;28;20498;-76
2022/09/28 06:20:42;;;;;;;1.30;0.90;;;;;;;7.17;88.74;99527.47;5036457;28;20036;-76
2022/09/28 06:23:11;;;;;;;3.67;0.82;;;;;;;7.20;88.62;99537.72;5043268;28;20029;-76
2022/09/28 06:25:37;;;;;;;1.33;0.80;;;;;;;7.23;88.54;99535.03;5026822;28;20034;-76
2022/09/28 06:28:05;;;;;;;2.45;0.80;;;;;;;7.28;88.56;99532.28;5044120;28;20037;-76
2022/09/28 06:30:33;;;;;;;1.40;0.90;;;;;;;7.28;88.56;99527.94;5041487;28;20048;-76
2022/09/28 06:33:00;;;;;;;2.53;0.93;;;;;;;7.27;88.58;99531.44;5033505;28;20443;-76
2022/09/28 06:35:29;;;;;;;1.40;0.60;;;;;;;7.26;88.16;99536.66;5054412;28;20548;-76
2022/09/28 06:37:55;;;;;;;0.98;0.80;;;;;;;7.26;88.36;99541.84;5054471;28;20047;-76
2022/09/28 06:40:21;;;;;;;2.15;0.85;;;;;;;7.26;88.40;99536.66;5041538;28;20091;-76
2022/09/28 06:42:58;;;;;;;2.85;0.90;;;;;;;7.27;88.36;99540.94;5041568;28;20124;-76
2022/09/28 06:45:24;;;;;;;1.60;0.82;;;;;;;7.28;88.59;99540.88;5027436;28;20029;-76
2022/09/28 06:47:58;;;;;;;2.13;0.90;;;;;;;7.30;88.35;99543.44;5040243;28;20029;-76
2022/09/28 06:50:25;;;;;;;3.65;0.80;;;;;;;7.32;88.34;99546.81;5045778;28;20109;-76
2022/09/28 06:52:52;;;;;;;2.88;1.00;;;;;;;7.34;88.24;99550.22;5038255;28;20038;-76
2022/09/28 06:55:17;;;;;;;3.85;1.05;;;;;;;7.37;88.56;99550.09;5043444;28;20113;-76
2022/09/28 06:57:43;;;;;;;5.15;2.25;;;;;;;7.41;88.41;99546.50;5034951;28;20133;-75
2022/09/28 07:00:09;;;;;;;3.75;1.67;;;;;;;7.46;88.41;99555.84;5045804;28;20028;-76
2022/09/28 07:02:34;;;;;;;5.63;1.70;;;;;;;7.51;88.16;99556.56;5039018;28;20025;-76
2022/09/28 07:05:00;;;;;;;2.50;1.48;;;;;;;7.53;88.37;99565.09;5044521;28;20032;-76
2022/09/28 07:07:25;;;;;;;7.05;1.80;;;;;;;7.57;88.37;99554.59;5033412;28;20382;-76
2022/09/28 07:09:53;;;;;;;3.10;1.73;;;;;;;7.61;88.07;99552.75;5036183;28;20056;-76
2022/09/28 07:12:19;;;;;;;2.40;1.63;;;;;;;7.64;88.05;99559.56;5039801;28;20426;-76
2022/09/28 07:14:44;;;;;;;2.67;1.80;;;;;;;7.65;87.73;99556.06;5034344;28;20532;-76
2022/09/28 07:17:10;;;;;;;3.92;1.60;;;;;;;7.67;87.95;99562.91;5034498;28;20049;-76
2022/09/28 07:19:35;;;;;;;2.55;1.65;;;;;;;7.71;87.85;99564.47;5040752;28;20026;-76
2022/09/28 07:22:01;;;;;;;2.50;1.77;;;;;;;7.73;88.39;99557.50;5033128;28;20040;-76
2022/09/28 07:24:28;;;;;;;3.13;1.73;;;;;;;7.79;88.19;99568.53;5037056;28;20106;-76
2022/09/28 07:26:54;;;;;;;3.45;2.03;;;;;;;7.83;88.41;99567.53;5039687;28;20036;-76
2022/09/28 07:29:19;;;;;;;3.08;1.67;;;;;;;7.85;87.93;99573.53;5038843;28;20018;-76
2022/09/28 07:31:44;;;;;;;4.30;1.73;;;;;;;7.86;87.91;99565.69;5037642;28;20431;-76
2022/09/28 07:34:10;;;;;;;4.82;1.80;;;;;;;7.91;87.93;99573.28;5020879;28;20116;-76
2022/09/28 07:36:35;;;;;;;3.85;1.80;;;;;;;7.96;87.60;99579.16;5035909;28;20488;-76
2022/09/28 07:39:01;;;;;;;3.50;1.80;;;;;;;7.99;87.83;99584.22;5035832;28;20104;-76
2022/09/28 07:41:33;;;;;;;3.30;1.75;;;;;;;8.02;87.76;99585.84;5040053;28;20078;-76
2022/09/28 07:44:04;;;;;;;2.30;1.85;;;;;;;8.07;87.76;99583.09;5039420;28;20029;-76
2022/09/28 07:46:30;;;;;;;4.93;1.92;;;;;;;8.10;87.69;99586.44;5037945;28;20033;-76
2022/09/28 07:48:55;;;;;;;2.85;1.98;;;;;;;8.14;87.43;99587.16;5034325;28;20079;-76
2022/09/28 07:51:21;;;;;;;4.55;2.10;;;;;;;8.17;87.21;99589.66;5038152;28;20033;-76
2022/09/28 07:53:46;;;;;;;2.95;1.80;;;;;;;8.21;87.46;99593.81;5043645;28;20081;-76
2022/09/28 07:56:16;;;;;;;4.10;2.17;;;;;;;8.26;87.76;99591.91;5038438;28;20450;-76
2022/09/28 07:58:41;;;;;;;3.90;2.50;;;;;;;8.32;88.08;99604.66;5042736;28;20078;-76
2022/09/28 08:01:09;;;;;;;3.45;2.20;;;;;;;8.35;87.77;99591.59;5041127;28;20026;-76
2022/09/28 08:03:35;;;;;;;3.67;2.22;;;;;;;8.41;87.43;99592.22;5037734;28;20083;-76
2022/09/28 08:06:04;;;;;;;5.53;2.15;;;;;;;8.43;86.96;99595.63;5034157;28;20372;-76
2022/09/28 08:08:31;;;;;;;4.15;2.38;;;;;;;8.45;87.03;99593.81;5042924;28;20057;-76
2022/09/28 08:10:57;;;;;;;3.25;2.05;;;;;;;8.50;87.45;99597.97;5045493;28;20105;-76
2022/09/28 08:13:26;;;;;;;3.92;2.60;;;;;;;8.55;86.93;99597.78;5021779;28;20124;-75
2022/09/28 08:15:52;;;;;;;4.50;2.30;;;;;;;8.60;87.27;99590.69;5041542;28;20040;-76
2022/09/28 08:18:18;;;;;;;3.85;2.20;;;;;;;8.64;86.92;99597.44;5043150;28;20032;-76
2022/09/28 08:23:27;;;;;;;6.70;2.40;;;;;;;8.75;87.19;99596.19;5038804;28;20094;-76
2022/09/28 08:25:55;;;;;;;3.40;2.38;;;;;;;8.79;86.99;99593.44;5040361;28;20033;-76
2022/09/28 08:28:22;;;;;;;3.80;2.35;;;;;;;8.85;87.16;99604.47;5036955;28;20501;-76
2022/09/28 08:30:48;;;;;;;3.40;2.58;;;;;;;8.89;87.35;99604.28;5034207;28;20033;-76
2022/09/28 08:33:16;;;;;;;4.50;2.60;;;;;;;8.93;87.30;99603.25;5037274;28;20037;-75
2022/09/28 08:35:43;;;;;;;3.60;2.28;;;;;;;8.98;87.06;99610.03;5040528;28;20020;-75
2022/09/28 08:38:08;;;;;;;3.80;2.60;;;;;;;9.01;86.54;99617.69;5039280;28;20041;-76
2022/09/28 08:40:43;;;;;;;3.42;2.15;;;;;;;9.03;86.41;99614.13;5035184;28;20044;-75
2022/09/28 08:43:46;;;;;;;4.95;2.50;;;;;;;9.11;86.92;99611.22;5022094;28;20028;-76
2022/09/28 08:46:16;;;;;;;5.80;2.90;;;;;;;9.21;86.67;99622.94;5020136;28;20040;-75
2022/09/28 08:48:53;;;;;;;6.78;2.92;;;;;;;9.29;86.23;99622.63;5039349;28;20060;-75
2022/09/28 08:51:35;;;;;;;5.45;2.88;;;;;;;9.36;85.47;99620.63;5036191;28;20031;-75
2022/09/28 08:54:08;;;;;;;5.43;3.20;;;;;;;9.41;85.92;99629.06;5036150;28;20056;-76
2022/09/28 08:56:45;;;;;;;5.63;3.15;;;;;;;9.44;85.56;99630.69;5034513;28;20034;-76
2022/09/28 08:59:15;;;;;;;7.00;3.28;;;;;;;9.47;85.65;99634.00;5038460;28;20041;-76
2022/09/28 09:01:48;;;;;;;5.78;3.08;;;;;;;9.53;85.38;99643.31;5034198;28;20040;-76
2022/09/28 09:04:13;;;;;;;4.25;2.85;;;;;;;9.61;85.08;99645.56;5033951;28;20098;-75
2022/09/28 09:07:17;;;;;;;4.40;2.92;;;;;;;9.67;84.25;99643.56;5036252;28;20143;-75
2022/09/28 09:09:48;;;;;;;4.30;2.92;;;;;;;9.78;84.75;99639.69;5034246;28;20033;-75
2022/09/28 09:12:32;;;;;;;6.47;3.13;;;;;;;9.86;85.74;99635.88;5042186;28;20040;-76
2022/09/28 09:15:21;;;;;;;3.67;2.60;;;;;;;9.93;84.17;99645.97;5039653;28;20067;-75
2022/09/28 09:18:02;;;;;;;3.88;2.40;;;;;;;9.89;83.72;99644.44;5045669;28;20533;-75
2022/09/28 09:20:45;;;;;;;3.20;1.98;;;;;;;9.81;83.52;99643.00;5045265;28;20040;-76
2022/09/28 09:23:17;;;;;;;2.85;1.90;;;;;;;9.77;83.23;99646.63;5040304;28;20041;-76
2022/09/28 09:25:45;;;;;;;;;;;;;;;9.85;84.52;99654.97;5039921;28;20045;-76
2022/09/28 09:28:50;;;;;;;3.00;2.05;;;;;;;9.91;83.86;99650.41;5040472;28;19921;-76
2022/09/28 09:31:49;;;;;;;4.43;2.25;;;;;;;10.00;84.17;99652.63;5036727;28;20350;-76
2022/09/28 09:34:40;;;;;;;2.95;2.08;;;;;;;10.07;83.70;99654.06;5040651;28;20083;-75
2022/09/28 09:37:26;;;;;;;2.95;2.20;;;;;;;10.13;83.17;99656.38;5037404;28;20132;-76
2022/09/28 09:40:29;;;;;;;5.10;2.10;;;;;;;10.21;82.70;99650.84;5030660;28;20502;-76
2022/09/28 09:43:07;;;;;;;5.15;2.20;;;;;;;10.27;81.49;99654.94;5021686;28;21217;-75
2022/09/28 09:45:59;;;;;;;4.40;2.10;;;;;;;10.32;81.93;99668.59;5038823;28;20048;-75
2022/09/28 09:48:42;;;;;;;4.43;2.15;;;;;;;10.32;81.74;99665.97;5041882;28;20033;-75
2022/09/28 09:51:19;;;;;;;3.03;2.30;;;;;;;10.39;81.47;99664.84;5041509;28;20037;-75
2022/09/28 09:53:54;;;;;;;4.53;2.63;;;;;;;10.53;82.62;99660.78;5040098;28;20025;-76
2022/09/28 09:56:27;;;;;;;4.60;2.45;;;;;;;10.68;82.31;99667.03;5038387;28;20039;-76
2022/09/28 09:59:00;;;;;;;5.28;2.65;;;;;;;10.80;81.65;99673.44;5037975;28;20112;-74
2022/09/28 10:01:36;;;;;;;3.92;2.58;;;;;;;10.85;80.91;99671.47;5039164;28;20057;-75
2022/09/28 10:04:05;;;;;;;4.45;2.50;;;;;;;10.87;80.90;99669.66;5039903;28;20031;-75
2022/09/28 10:06:35;;;;;;;3.33;2.20;;;;;;;10.89;80.28;99673.03;5040022;28;20114;-75
2022/09/28 10:09:04;;;;;;;3.47;1.85;;;;;;;10.95;79.41;99677.13;5040997;28;20048;-75
2022/09/28 10:11:35;;;;;;;2.55;1.80;;;;;;;11.01;79.28;99666.44;5036999;28;20040;-75
2022/09/28 10:14:01;;;;;;;;;;;;;;;11.10;81.60;99663.38;5037592;28;20598;-75
2022/09/28 10:16:27;;;;;;;2.20;1.75;;;;;;;11.12;78.37;99668.50;5035995;28;19974;-75
2022/09/28 10:18:52;;;;;;;2.45;1.52;;;;;;;11.12;77.18;99673.72;5036704;28;20036;-75
2022/09/28 10:21:21;;;;;;;3.15;1.58;;;;;;;11.16;78.29;99664.84;5037185;28;20168;-75
2022/09/28 10:23:52;;;;;;;4.47;1.70;;;;;;;11.22;78.18;99664.56;5038234;28;20021;-75
2022/09/28 10:26:23;;;;;;;3.05;1.60;;;;;;;11.23;78.16;99661.88;5039099;28;20031;-75
2022/09/28 10:29:01;;;;;;;3.57;1.80;;;;;;;11.27;77.72;99662.59;5039210;28;21005;-75
2022/09/28 10:31:34;;;;;;;3.30;1.50;;;;;;;11.30;78.54;99662.44;5040291;28;20370;-75
2022/09/28 10:33:59;;;;;;;2.38;1.38;;;;;;;11.33;77.90;99666.66;5035351;28;20021;-75
2022/09/28 10:36:25;;;;;;;1.83;1.40;;;;;;;11.33;76.93;99664.06;5038184;28;20031;-75
2022/09/28 10:38:50;;;;;;;2.38;1.10;;;;;;;11.28;77.39;99663.44;5035869;28;20033;-75
2022/09/28 10:41:16;;;;;;;4.25;1.30;;;;;;;11.22;76.67;99674.97;5034204;28;20039;-75
2022/09/28 10:44:05;;;;;;;1.35;1.10;;;;;;;11.18;78.09;99668.22;5036521;28;20102;-74
2022/09/28 10:46:33;;;;;;;2.97;1.00;;;;;;;11.16;76.96;99662.25;5016250;28;20029;-75
2022/09/28 10:49:13;;;;;;;2.13;0.90;;;;;;;11.22;76.40;99664.56;5032258;28;21549;-75
2022/09/28 10:51:42;;;;;;;2.13;1.00;;;;;;;11.29;76.20;99647.72;5041240;28;20473;-76
2022/09/28 10:54:15;;;;;;;1.63;0.90;;;;;;;11.42;75.83;99652.34;5036689;28;20447;-76
2022/09/28 10:56:40;;;;;;;3.30;1.00;;;;;;;11.54;76.39;99659.56;5033694;28;20495;-76
2022/09/28 10:59:32;;;;;;;1.35;0.75;;;;;;;11.71;78.09;99658.72;5037650;28;20061;-76
2022/09/28 11:02:03;;;;;;;3.22;0.82;;;;;;;11.79;74.74;99658.34;5035769;28;20391;-76
2022/09/28 11:04:35;;;;;;;2.80;0.90;;;;;;;11.84;74.73;99657.22;5036160;28;20036;-75
2022/09/28 11:07:01;;;;;;;1.52;0.70;;;;;;;11.94;74.52;99657.59;5032949;28;20241;-76
2022/09/28 11:09:32;;;;;;;1.27;0.77;;;;;;;11.98;72.79;99656.53;5043253;28;20479;-76
2022/09/28 11:11:58;;;;;;;1.38;0.70;;;;;;;12.06;73.32;99661.34;5044058;28;20033;-76
2022/09/28 11:14:35;;;;;;;1.73;1.10;;;;;;;12.13;74.29;99656.66;5035408;28;20037;-76
2022/09/28 11:17:15;;;;;;;2.08;0.98;;;;;;;12.21;74.66;99654.53;5034444;28;20029;-75
2022/09/28 11:19:42;;;;;;;3.30;0.98;;;;;;;12.28;74.71;99652.44;5038828;28;20471;-76
2022/09/28 11:22:28;;;;;;;2.88;1.40;;;;;;;12.36;75.21;99647.66;5040585;28;20033;-76
2022/09/28 11:25:19;;;;;;;1.77;0.90;;;;;;;12.41;73.69;99650.03;5035419;28;20071;-76
2022/09/28 11:27:50;;;;;;;1.23;0.90;;;;;;;12.42;71.34;99654.31;5035387;28;20044;-75
2022/09/28 11:30:39;;;;;;;1.27;0.80;;;;;;;12.44;73.22;99647.25;5035214;28;20031;-76
2022/09/28 11:33:13;;;;;;;1.20;0.80;;;;;;;12.44;72.50;99655.09;5036068;28;20478;-75
2022/09/28 11:35:55;;;;;;;2.17;1.00;;;;;;;12.40;71.79;99653.56;5036392;28;20182;-75
2022/09/28 11:38:34;;;;;;;1.27;0.80;;;;;;;12.34;72.16;99653.88;5031675;28;20039;-76
2022/09/28 11:41:23;;;;;;;1.58;0.80;;;;;;;12.37;72.68;99653.72;5034173;28;20404;-76
2022/09/28 11:44:08;;;;;;;1.45;1.00;;;;;;;12.42;72.59;99655.16;5035893;28;20030;-76
2022/09/28 11:47:11;;;;;;;2.05;1.30;;;;;;;12.58;73.97;99656.94;5034589;28;20028;-76
2022/09/28 11:49:55;;;;;;;5.95;1.63;;;;;;;12.74;73.57;99656.97;5034105;28;20037;-76
2022/09/28 11:52:26;;;;;;;4.97;1.83;;;;;;;12.79;71.63;99654.13;5032759;28;20170;-75
2022/09/28 11:55:26;;;;;;;2.60;1.60;;;;;;;12.81;73.22;99645.28;5035489;28;20586;-76
2022/09/28 11:58:02;;;;;;;3.80;2.00;;;;;;;12.75;72.12;99643.84;4995931;28;20142;-76
2022/09/28 12:00:30;;;;;;;1.70;1.45;;;;;;;12.71;71.02;99646.72;5031270;28;20816;-75
2022/09/28 12:03:04;;;;;;;2.70;0.98;;;;;;;12.63;68.38;99643.69;5033321;28;20119;-76
2022/09/28 12:05:33;;;;;;;4.82;1.00;;;;;;;12.59;69.53;99648.19;5033059;28;20041;-76